createdAt,value
2022-07-31T00:04:44.984Z,101219.47
2022-07-31T00:09:53.571Z,101221.53
2022-07-31T00:14:56.485Z,101224.38
2022-07-31T00:19:59.665Z,101217.50
2022-07-31T00:25:02.013Z,101227.34
2022-07-31T00:30:05.282Z,101222.88
2022-07-31T00:35:09.432Z,101217.63
2022-07-31T00:40:16.341Z,101208.00
2022-07-31T00:45:18.071Z,101201.69
2022-07-31T00:50:25.358Z,101208.88
2022-07-31T00:55:27.523Z,101201.91
2022-07-31T01:00:29.786Z,101201.22
2022-07-31T01:05:33.243Z,101197.84
2022-07-31T01:10:43.444Z,101203.94
2022-07-31T01:15:47.850Z,101203.06
2022-07-31T01:20:54.466Z,101205.09
2022-07-31T01:26:03.784Z,101200.06
2022-07-31T01:31:26.230Z,101195.59
2022-07-31T01:36:31.951Z,101200.28
2022-07-31T01:41:38.086Z,101199.28
2022-07-31T01:46:43.314Z,101201.19
2022-07-31T01:51:48.258Z,101201.44
2022-07-31T01:56:50.484Z,101186.56
2022-07-31T02:01:54.932Z,101197.13
2022-07-31T02:06:57.226Z,101198.97
2022-07-31T02:12:00.377Z,101199.88
2022-07-31T02:17:05.184Z,101205.31
2022-07-31T02:22:07.857Z,101198.31
2022-07-31T02:27:56.270Z,101183.44
2022-07-31T02:32:38.188Z,101185.25
2022-07-31T02:37:42.747Z,101188.78
2022-07-31T02:42:46.869Z,101178.22
2022-07-31T02:47:50.348Z,101174.81
2022-07-31T02:52:52.717Z,101181.75
2022-07-31T02:57:54.956Z,101174.72
2022-07-31T03:02:58.434Z,101173.00
2022-07-31T03:08:00.505Z,101168.72
2022-07-31T03:13:03.515Z,101167.97
2022-07-31T03:18:11.230Z,101176.84
2022-07-31T03:23:14.611Z,101178.75
2022-07-31T03:28:17.285Z,101168.22
2022-07-31T03:33:20.754Z,101176.94
2022-07-31T03:38:38.728Z,101171.72
2022-07-31T03:43:47.998Z,101173.34
2022-07-31T03:48:52.978Z,101179.63
2022-07-31T03:53:55.358Z,101169.91
2022-07-31T03:58:57.783Z,101172.44
2022-07-31T04:04:02.594Z,101174.22
2022-07-31T04:09:15.636Z,101177.53
2022-07-31T04:14:21.021Z,101176.47
2022-07-31T04:19:24.754Z,101177.22
2022-07-31T04:24:26.989Z,101189.44
2022-07-31T04:29:29.052Z,101188.31
2022-07-31T04:34:32.573Z,101185.22
2022-07-31T04:39:35.149Z,101199.84
2022-07-31T04:44:37.230Z,101196.53
2022-07-31T04:49:40.566Z,101192.25
2022-07-31T04:54:42.601Z,101190.75
2022-07-31T04:59:58.628Z,101180.75
2022-07-31T05:05:05.331Z,101192.22
2022-07-31T05:10:07.723Z,101191.19
2022-07-31T05:15:10.670Z,101195.13
2022-07-31T05:20:14.344Z,101197.75
2022-07-31T05:25:16.549Z,101195.22
2022-07-31T05:30:30.080Z,101209.63
2022-07-31T05:35:34.087Z,101200.34
2022-07-31T05:40:36.324Z,101207.38
2022-07-31T05:45:38.407Z,101209.16
2022-07-31T05:50:43.091Z,101217.06
2022-07-31T05:55:46.057Z,101220.03
2022-07-31T06:00:49.305Z,101217.41
2022-07-31T06:05:52.765Z,101222.81
2022-07-31T06:10:55.070Z,101216.78
2022-07-31T06:15:57.380Z,101209.66
2022-07-31T06:21:01.179Z,101205.81
2022-07-31T06:26:03.403Z,101220.94
2022-07-31T06:31:05.229Z,101219.41
2022-07-31T06:36:08.573Z,101221.34
2022-07-31T06:41:10.389Z,101224.75
2022-07-31T06:46:13.332Z,101222.09
2022-07-31T06:51:32.325Z,101221.03
2022-07-31T06:56:35.352Z,101223.75
2022-07-31T07:01:37.193Z,101226.44
2022-07-31T07:06:40.299Z,101221.94
2022-07-31T07:11:42.028Z,101218.72
2022-07-31T07:16:44.096Z,101217.19
2022-07-31T07:21:47.855Z,101211.69
2022-07-31T07:26:50.153Z,101199.19
2022-07-31T07:31:51.924Z,101194.06
2022-07-31T07:36:55.079Z,101185.56
2022-07-31T07:41:56.819Z,101192.91
2022-07-31T07:46:58.922Z,101184.69
2022-07-31T07:52:02.324Z,101174.00
2022-07-31T07:57:04.175Z,101179.66
2022-07-31T08:02:06.197Z,101172.97
2022-07-31T08:07:10.149Z,101167.19
2022-07-31T08:12:11.927Z,101167.56
2022-07-31T08:17:14.060Z,101176.06
2022-07-31T08:22:17.482Z,101165.94
2022-07-31T08:27:21.424Z,101176.06
2022-07-31T08:32:24.434Z,101176.44
2022-07-31T08:37:51.849Z,101177.22
2022-07-31T08:42:49.777Z,101169.41
2022-07-31T08:47:52.780Z,101165.84
2022-07-31T08:52:57.486Z,101167.84
2022-07-31T08:57:59.392Z,101152.91
2022-07-31T09:03:02.770Z,101158.75
2022-07-31T09:08:08.429Z,101155.38
2022-07-31T09:13:18.094Z,101151.09
2022-07-31T09:21:00.434Z,101138.88
2022-07-31T09:26:06.117Z,101134.22
2022-07-31T09:31:09.770Z,101146.25
2022-07-31T09:36:14.386Z,101136.66
2022-07-31T09:41:56.812Z,101133.16
2022-07-31T09:46:40.964Z,101129.09
2022-07-31T09:51:46.559Z,101124.53
2022-07-31T09:56:48.670Z,101129.94
2022-07-31T10:01:50.965Z,101115.72
2022-07-31T10:06:56.259Z,101120.63
2022-07-31T10:12:00.648Z,101117.22
2022-07-31T10:17:04.525Z,101110.59
2022-07-31T10:22:12.177Z,101115.03
2022-07-31T10:27:15.857Z,101111.13
2022-07-31T10:32:18.588Z,101094.47
2022-07-31T10:37:25.045Z,101097.44
2022-07-31T10:42:36.244Z,101103.75
2022-07-31T10:47:37.946Z,101088.34
2022-07-31T10:52:41.381Z,101079.72
2022-07-31T10:57:56.117Z,101080.41
2022-07-31T11:02:59.560Z,101077.56
2022-07-31T11:08:05.341Z,101083.06
2022-07-31T11:13:09.080Z,101069.34
2022-07-31T11:18:20.893Z,101068.09
2022-07-31T11:23:30.673Z,101060.03
2022-07-31T11:28:33.374Z,101065.06
2022-07-31T11:33:41.667Z,101051.09
2022-07-31T11:38:47.667Z,101049.03
2022-07-31T11:43:51.457Z,101052.88
2022-07-31T11:48:54.438Z,101044.09
2022-07-31T11:53:59.971Z,101036.38
2022-07-31T11:59:02.118Z,101034.00
2022-07-31T12:04:04.749Z,101043.13
2022-07-31T12:10:02.425Z,101030.44
2022-07-31T12:14:37.316Z,101027.44
2022-07-31T12:19:39.325Z,101017.22
2022-07-31T12:24:43.158Z,100999.16
2022-07-31T12:29:45.998Z,101020.91
2022-07-31T12:34:48.268Z,101008.78
2022-07-31T12:40:00.813Z,101005.69
2022-07-31T12:45:20.160Z,100995.84
2022-07-31T12:50:24.187Z,100992.00
2022-07-31T12:55:27.915Z,100982.34
2022-07-31T13:00:30.176Z,100986.38
2022-07-31T13:05:32.025Z,100979.50
2022-07-31T13:10:35.173Z,100956.75
2022-07-31T13:15:36.893Z,100955.94
2022-07-31T13:20:38.665Z,100958.41
2022-07-31T13:25:41.951Z,100952.69
2022-07-31T13:30:44.104Z,100951.28
2022-07-31T13:35:45.869Z,100942.59
2022-07-31T13:40:48.897Z,100932.28
2022-07-31T13:45:50.638Z,100935.25
2022-07-31T13:50:52.393Z,100919.06
2022-07-31T13:55:55.986Z,100921.94
2022-07-31T14:01:03.959Z,100912.13
2022-07-31T14:06:09.365Z,100913.81
2022-07-31T14:11:13.839Z,100908.81
2022-07-31T14:16:16.839Z,100907.59
2022-07-31T14:21:19.064Z,100895.81
2022-07-31T14:26:22.156Z,100901.66
2022-07-31T14:31:24.434Z,100891.78
2022-07-31T14:36:26.578Z,100894.88
2022-07-31T14:41:29.864Z,100894.59
2022-07-31T14:46:32.014Z,100888.69
2022-07-31T14:51:35.158Z,100887.97
2022-07-31T14:57:00.898Z,100894.94
2022-07-31T15:02:00.834Z,100897.00
2022-07-31T15:07:32.272Z,100896.53
2022-07-31T15:12:26.011Z,100898.97
2022-07-31T15:17:28.202Z,100893.34
2022-07-31T15:22:29.966Z,100889.91
2022-07-31T15:27:33.210Z,100874.34
2022-07-31T15:32:36.104Z,100871.03
2022-07-31T15:37:39.932Z,100878.09
2022-07-31T15:42:45.383Z,100873.44
2022-07-31T15:47:49.181Z,100872.13
2022-07-31T15:52:51.060Z,100868.50
2022-07-31T15:57:54.506Z,100863.03
2022-07-31T16:02:56.295Z,100862.81
2022-07-31T16:08:28.875Z,100856.47
2022-07-31T16:13:26.098Z,100852.44
2022-07-31T16:18:28.380Z,100850.41
2022-07-31T16:23:30.388Z,100845.31
2022-07-31T16:28:33.622Z,100854.53
2022-07-31T16:33:35.985Z,100842.91
2022-07-31T16:38:38.097Z,100831.50
2022-07-31T16:43:49.756Z,100828.75
2022-07-31T16:48:53.523Z,100832.59
2022-07-31T16:54:14.532Z,100828.78
2022-07-31T16:59:18.932Z,100826.09
2022-07-31T17:04:20.724Z,100822.41
2022-07-31T17:09:22.850Z,100819.78
2022-07-31T17:14:27.871Z,100824.28
2022-07-31T17:19:41.682Z,100815.28
2022-07-31T17:24:48.282Z,100821.59
2022-07-31T17:29:51.601Z,100815.44
2022-07-31T17:34:53.545Z,100816.97
2022-07-31T17:39:57.826Z,100811.56
2022-07-31T17:45:01.597Z,100808.94
2022-07-31T17:50:03.946Z,100803.84
2022-07-31T17:55:06.613Z,100806.34
2022-07-31T18:00:10.832Z,100803.59
2022-07-31T18:05:12.490Z,100816.13
2022-07-31T18:10:14.277Z,100817.25
2022-07-31T18:15:17.622Z,100812.00
2022-07-31T18:20:20.099Z,100809.72
2022-07-31T18:25:22.056Z,100808.22
2022-07-31T18:30:30.533Z,100814.59
2022-07-31T18:35:36.107Z,100806.38
2022-07-31T18:40:38.211Z,100807.44
2022-07-31T18:45:42.077Z,100816.56
2022-07-31T18:51:01.368Z,100814.88
2022-07-31T18:56:05.677Z,100821.09
2022-07-31T19:01:08.899Z,100827.22
2022-07-31T19:06:10.920Z,100828.06
2022-07-31T19:11:12.649Z,100834.16
2022-07-31T19:16:17.671Z,100835.44
2022-07-31T19:21:41.084Z,100836.44
2022-07-31T19:26:42.370Z,100829.56
2022-07-31T19:31:46.115Z,100842.16
2022-07-31T19:36:48.035Z,100832.63
2022-07-31T19:42:12.231Z,100836.38
2022-07-31T19:47:13.377Z,100837.09
2022-07-31T19:52:15.097Z,100830.78
2022-07-31T19:57:16.841Z,100827.69
2022-07-31T20:02:19.899Z,100816.59
2022-07-31T20:07:22.030Z,100822.88
2022-07-31T20:12:24.146Z,100823.88
2022-07-31T20:17:27.653Z,100816.50
2022-07-31T20:22:29.892Z,100809.75
2022-07-31T20:27:32.010Z,100809.50
2022-07-31T20:32:35.521Z,100802.44
2022-07-31T20:37:49.051Z,100811.94
2022-07-31T20:42:51.246Z,100799.47
2022-07-31T20:47:54.779Z,100801.41
2022-07-31T20:52:56.520Z,100797.78
2022-07-31T20:57:58.593Z,100801.34
2022-07-31T21:03:02.950Z,100790.84
2022-07-31T21:08:05.426Z,100786.88
2022-07-31T21:13:08.173Z,100781.22
2022-07-31T21:18:12.069Z,100773.50
2022-07-31T21:23:13.825Z,100762.47
2022-07-31T21:28:16.370Z,100763.63
2022-07-31T21:33:20.342Z,100776.69
2022-07-31T21:38:23.043Z,100776.78
2022-07-31T21:43:25.717Z,100783.94
2022-07-31T21:48:31.716Z,100791.22
2022-07-31T21:53:34.164Z,100803.00
2022-07-31T21:58:36.322Z,100809.00
2022-07-31T22:03:39.952Z,100804.00
2022-07-31T22:08:42.123Z,100804.50
2022-07-31T22:13:44.184Z,100809.47
2022-07-31T22:18:48.266Z,100799.81
2022-07-31T22:23:50.779Z,100803.25
2022-07-31T22:28:54.211Z,100808.19
2022-07-31T22:33:57.844Z,100804.13
2022-07-31T22:39:00.450Z,100805.59
2022-07-31T22:44:11.415Z,100810.97
2022-07-31T22:49:19.298Z,100818.97
2022-07-31T22:54:21.401Z,100819.41
2022-07-31T22:59:23.583Z,100818.38
2022-07-31T23:04:27.553Z,100823.94
2022-07-31T23:09:29.894Z,100822.00
2022-07-31T23:14:32.274Z,100821.31
2022-07-31T23:19:35.741Z,100822.72
2022-07-31T23:24:37.892Z,100819.63
2022-07-31T23:29:41.664Z,100819.91
2022-07-31T23:34:45.269Z,100816.19
2022-07-31T23:39:47.214Z,100812.94
2022-07-31T23:44:49.233Z,100815.63
2022-07-31T23:49:53.428Z,100817.13
2022-07-31T23:54:55.486Z,100806.47
2022-07-31T23:59:57.613Z,100804.22
